Terminal Aerodrome Forecast
Issued by NWS Pueblo, CO

Home | Current Version | Previous Version | Text Only | Print | Product List | Glossary On
Versions: 1 2 3 4 5 6 7 8 9 10 11 12 13 14 15 16 17 18 19 20 21 22 23 24 25 26 27 28 29 30
000
FTUS45 KPUB 210520
TAFPUB
TAF
KPUB 210520Z 2106/2206 36008KT P6SM FEW100 SCT150
     FM211200 VRB05KT P6SM SCT200
     FM211900 11010KT P6SM SCT100 SCT150
     FM212300 14012KT P6SM VCTS SCT080CB BKN120
     FM220200 04012KT P6SM VCTS SCT070CB BKN100=

USA.gov is the U.S. government's official web portal to all federal, state and local government web resources and services.